Startpagina
METAR-TAF:

METAR-TAF

Vliegvelden :

Productieplatform

P11-b, Nederland

breedte: 52-21-36N, lengte: 3-20-30E, hoogte: 24 m

Actueel weer

Dit bericht is 21 minuten geleden gemaakt, om 07:25 UTC
Wind 22 kt uit het zuidzuidoosten
Temperatuur 4°C
Vochtigheid 87%
Druk 1009 hPa
Zicht: 9000 m
Weinig wolken op 900 ft
Gebroken wolken op 1000 ft

METAR: EHPG 210725Z AUTO 15022KT 9000 FEW009 BKN010 04/02 Q1009 W///H///

Tijdstip: 08:46 (07:46 UTC)


TAF: ontbreekt

Waarnemingen en weersverwachtingen van meer dan 4000 vliegvelden (METAR en TAF).

De beschikbare stations zijn de gele en rode punten op de kaart.

Ga met uw muis naar het station om de naam te zien.

Klik dan om waarnemingen en weersverwachtingen te zien.

kaart wijzigen: klik op de groene knoppen met een zwart kruis om in te zoomen, op de groene knop met een streepje om uit te zoomen of op de groene pijlen voor aangrenzende kaarten.


METAR-TAF: